Time;durP1;ratioP1;P1;durP2;ratioP2;P2;SDS_P1;SDS_P2;PMS_P1;PMS_P2;Temp;Humidity;BMP_temperature;BMP_pressure;BME280_temperature;BME280_humidity;BME280_pressure;Samples;Min_cycle;Max_cycle;Signal;HPM_P1;HPM_P2
2023/06/28 00:01:36;;;;;;;9.02;2.92;;;20.10;86.00;;;;;;4115499;28;20046;-52
2023/06/28 00:03:39;;;;;;;8.70;2.75;;;20.00;85.90;;;;;;4115875;28;20061;-54
2023/06/28 00:05:42;;;;;;;8.98;2.67;;;20.10;85.90;;;;;;4115243;28;20101;-54
2023/06/28 00:07:44;;;;;;;5.75;2.65;;;20.00;85.90;;;;;;4114497;28;20529;-56
2023/06/28 00:09:46;;;;;;;8.60;2.83;;;20.00;86.70;;;;;;4115733;28;20050;-56
2023/06/28 00:11:48;;;;;;;6.30;2.28;;;20.00;86.40;;;;;;4115712;28;20117;-56
2023/06/28 00:13:51;;;;;;;6.15;2.00;;;20.00;86.30;;;;;;4115800;28;20053;-56
2023/06/28 00:15:53;;;;;;;9.80;2.20;;;20.00;86.30;;;;;;4115366;28;20126;-57
2023/06/28 00:17:55;;;;;;;10.50;2.83;;;20.00;86.60;;;;;;4114458;28;20046;-57
2023/06/28 00:19:58;;;;;;;6.30;2.53;;;20.00;86.90;;;;;;4115424;28;20051;-56
2023/06/28 00:22:03;;;;;;;6.68;2.67;;;19.90;86.80;;;;;;4115544;28;20058;-57
2023/06/28 00:24:05;;;;;;;6.82;2.53;;;19.90;87.10;;;;;;4115435;28;20073;-56
2023/06/28 00:26:07;;;;;;;6.93;2.50;;;20.00;86.60;;;;;;4115461;28;20139;-57
2023/06/28 00:28:09;;;;;;;7.75;2.60;;;19.90;87.50;;;;;;4114726;28;20489;-57
2023/06/28 00:30:12;;;;;;;5.95;2.70;;;19.90;87.10;;;;;;4115529;28;20125;-57
2023/06/28 00:32:14;;;;;;;7.05;2.85;;;19.90;87.00;;;;;;4115323;28;20047;-56
2023/06/28 00:34:17;;;;;;;10.65;2.75;;;19.90;87.30;;;;;;4114950;28;20101;-56
2023/06/28 00:36:19;;;;;;;10.20;2.60;;;19.90;86.80;;;;;;4114780;28;20098;-57
2023/06/28 00:38:22;;;;;;;9.73;3.35;;;19.90;86.80;;;;;;4114900;28;20070;-56
2023/06/28 00:40:24;;;;;;;5.78;2.15;;;19.90;86.80;;;;;;4115486;28;20054;-56
2023/06/28 00:42:27;;;;;;;6.20;2.00;;;19.90;87.10;;;;;;4115519;28;20062;-56
2023/06/28 00:44:29;;;;;;;6.25;2.00;;;19.90;87.00;;;;;;4115424;28;20570;-53
2023/06/28 00:46:31;;;;;;;14.02;2.70;;;19.90;86.90;;;;;;4114200;28;20500;-54
2023/06/28 00:48:35;;;;;;;6.15;2.70;;;19.80;86.90;;;;;;4115051;28;20553;-54
2023/06/28 00:50:38;;;;;;;7.57;2.03;;;19.80;87.50;;;;;;4114947;28;20058;-53
2023/06/28 00:52:41;;;;;;;10.45;2.40;;;19.80;88.20;;;;;;4115694;28;20057;-54
2023/06/28 00:54:44;;;;;;;6.75;2.28;;;19.80;87.40;;;;;;4115293;28;20078;-54
2023/06/28 00:56:47;;;;;;;7.05;2.08;;;19.80;87.60;;;;;;4114426;28;20069;-54
2023/06/28 00:58:50;;;;;;;4.72;2.20;;;19.80;88.40;;;;;;4114975;28;20524;-54
2023/06/28 01:00:52;;;;;;;8.00;2.38;;;19.80;87.60;;;;;;4115291;28;20059;-54
2023/06/28 01:02:55;;;;;;;8.60;2.60;;;19.90;87.40;;;;;;4115058;28;20057;-54
2023/06/28 01:04:58;;;;;;;7.05;2.33;;;19.80;87.40;;;;;;4114582;28;20484;-54
2023/06/28 01:07:01;;;;;;;10.25;2.17;;;19.90;87.20;;;;;;4114310;28;20138;-54
2023/06/28 01:09:07;;;;;;;10.73;2.88;;;19.90;87.10;;;;;;4114966;28;20495;-54
2023/06/28 01:11:11;;;;;;;11.25;3.03;;;19.90;86.90;;;;;;4115000;28;20062;-54
2023/06/28 01:13:14;;;;;;;9.45;3.53;;;19.90;87.40;;;;;;4114994;28;20070;-54
2023/06/28 01:15:17;;;;;;;9.00;3.30;;;19.90;87.00;;;;;;4115373;28;20409;-54
2023/06/28 01:17:19;;;;;;;9.10;3.40;;;19.90;86.80;;;;;;4114038;28;20487;-54
2023/06/28 01:19:23;;;;;;;15.07;3.00;;;19.90;86.70;;;;;;4114802;28;20057;-54
2023/06/28 01:21:29;;;;;;;9.52;2.65;;;19.80;86.90;;;;;;4113786;28;20110;-57
2023/06/28 01:23:33;;;;;;;6.30;2.30;;;19.80;86.90;;;;;;4115273;28;20449;-56
2023/06/28 01:25:36;;;;;;;5.93;2.65;;;19.80;87.10;;;;;;4115380;28;20437;-57
2023/06/28 01:27:44;;;;;;;5.78;2.42;;;19.80;87.30;;;;;;4114467;28;20078;-59
2023/06/28 01:29:47;;;;;;;12.45;2.58;;;19.80;87.20;;;;;;4115259;28;20121;-56
2023/06/28 01:31:50;;;;;;;9.55;2.90;;;19.80;86.50;;;;;;4115336;28;20314;-58
2023/06/28 01:33:52;;;;;;;5.57;2.03;;;19.70;86.70;;;;;;4114701;28;20054;-57
2023/06/28 01:35:56;;;;;;;7.25;2.30;;;19.70;87.20;;;;;;4115090;28;20460;-57
2023/06/28 01:37:59;;;;;;;10.38;2.22;;;19.70;87.10;;;;;;4113792;28;20137;-55
2023/06/28 01:40:04;;;;;;;8.27;2.17;;;19.70;86.90;;;;;;4115406;28;20077;-57
2023/06/28 01:42:07;;;;;;;8.27;2.53;;;19.70;87.10;;;;;;4114688;28;20051;-55
2023/06/28 01:44:09;;;;;;;6.50;2.45;;;19.70;87.10;;;;;;4114893;28;20050;-56
2023/06/28 01:46:11;;;;;;;7.65;2.45;;;19.70;87.00;;;;;;4114775;28;20082;-56
2023/06/28 01:48:13;;;;;;;7.38;3.03;;;19.70;87.60;;;;;;4113237;28;20130;-55
2023/06/28 01:50:17;;;;;;;6.15;2.40;;;19.70;87.30;;;;;;4117210;28;20239;-58
2023/06/28 01:52:19;;;;;;;13.17;2.83;;;19.60;87.60;;;;;;4117728;28;20522;-57
2023/06/28 01:54:21;;;;;;;8.60;2.88;;;19.70;87.20;;;;;;4117445;28;20130;-54
2023/06/28 01:56:25;;;;;;;8.07;2.35;;;19.70;87.00;;;;;;4117530;28;20062;-53
2023/06/28 01:58:27;;;;;;;7.32;2.45;;;19.60;87.00;;;;;;4116660;28;20113;-54
2023/06/28 02:00:29;;;;;;;6.07;2.53;;;19.60;86.90;;;;;;4117506;28;20058;-56
2023/06/28 02:02:31;;;;;;;9.20;2.63;;;19.60;87.10;;;;;;4117259;28;20055;-55
2023/06/28 02:04:33;;;;;;;10.45;3.38;;;19.60;86.80;;;;;;4117523;28;20142;-57
2023/06/28 02:06:39;;;;;;;8.60;2.92;;;19.70;86.50;;;;;;4117281;28;20451;-56
2023/06/28 02:08:41;;;;;;;9.13;3.05;;;19.70;87.30;;;;;;4117404;28;20114;-56
2023/06/28 02:10:44;;;;;;;8.98;3.03;;;19.60;86.40;;;;;;4117548;28;20054;-57
2023/06/28 02:12:47;;;;;;;7.20;2.58;;;19.60;86.50;;;;;;4117094;28;20297;-57
2023/06/28 02:14:51;;;;;;;6.60;2.97;;;19.50;86.80;;;;;;4117324;28;20061;-56
2023/06/28 02:16:54;;;;;;;5.97;2.10;;;19.50;86.80;;;;;;4116061;28;20038;-57
2023/06/28 02:18:57;;;;;;;5.22;2.38;;;19.50;87.20;;;;;;4117080;28;20047;-57
2023/06/28 02:20:59;;;;;;;9.15;2.53;;;19.50;87.20;;;;;;4117299;28;20184;-57
2023/06/28 02:23:01;;;;;;;6.32;2.50;;;19.50;87.00;;;;;;4117318;28;20047;-56
2023/06/28 02:25:04;;;;;;;9.38;2.45;;;19.50;86.80;;;;;;4117335;28;20050;-56
2023/06/28 02:27:08;;;;;;;5.85;2.25;;;19.50;87.00;;;;;;4116137;28;20232;-56
2023/06/28 02:29:11;;;;;;;7.90;2.47;;;19.50;87.20;;;;;;4117077;28;20074;-55
2023/06/28 02:31:13;;;;;;;10.63;3.35;;;19.50;87.00;;;;;;4116938;28;20047;-53
2023/06/28 02:33:16;;;;;;;7.30;2.50;;;19.50;86.90;;;;;;4117103;28;20047;-56
2023/06/28 02:35:18;;;;;;;9.48;2.85;;;19.50;87.20;;;;;;4117103;28;20057;-53
2023/06/28 02:37:20;;;;;;;9.60;2.72;;;19.60;87.10;;;;;;4116146;28;20114;-54
2023/06/28 02:39:22;;;;;;;8.60;2.70;;;19.60;86.90;;;;;;4116838;28;20061;-53
2023/06/28 02:41:24;;;;;;;15.38;3.42;;;19.50;87.20;;;;;;4116797;28;20096;-54
2023/06/28 02:43:26;;;;;;;8.07;2.83;;;19.50;86.90;;;;;;4117026;28;20082;-53
2023/06/28 02:45:30;;;;;;;9.05;2.80;;;19.50;87.10;;;;;;4116414;28;20050;-53
2023/06/28 02:47:32;;;;;;;8.90;2.80;;;19.50;86.90;;;;;;4115885;28;20412;-57
2023/06/28 02:49:34;;;;;;;7.45;3.40;;;19.50;86.80;;;;;;4116558;28;20059;-57
2023/06/28 02:51:36;;;;;;;6.28;2.95;;;19.50;86.80;;;;;;4116896;28;20057;-57
2023/06/28 02:53:38;;;;;;;6.43;2.40;;;19.40;87.10;;;;;;4115401;28;20129;-57
2023/06/28 02:55:40;;;;;;;7.82;2.50;;;19.40;87.00;;;;;;4116536;28;20046;-57
2023/06/28 02:57:42;;;;;;;11.43;3.17;;;19.40;87.10;;;;;;4115714;28;20051;-56
2023/06/28 02:59:44;;;;;;;10.13;3.10;;;19.40;86.90;;;;;;4116264;28;20074;-57
2023/06/28 03:01:48;;;;;;;10.27;3.13;;;19.50;87.10;;;;;;4116570;28;20054;-55
2023/06/28 03:03:50;;;;;;;8.48;3.00;;;19.40;87.20;;;;;;4116473;28;20464;-56
2023/06/28 03:05:52;;;;;;;9.55;3.15;;;19.30;88.00;;;;;;4116871;28;20051;-56
2023/06/28 03:07:54;;;;;;;9.63;2.58;;;19.40;87.30;;;;;;4115565;28;20239;-56
2023/06/28 03:09:56;;;;;;;6.63;2.47;;;19.40;87.30;;;;;;4116400;28;20063;-57
2023/06/28 03:11:58;;;;;;;7.60;2.58;;;19.40;87.50;;;;;;4116721;28;20141;-56
2023/06/28 03:14:01;;;;;;;7.28;3.22;;;19.40;87.60;;;;;;4116380;28;20500;-56
2023/06/28 03:16:04;;;;;;;9.73;3.25;;;19.40;87.40;;;;;;4116474;28;20042;-57
2023/06/28 03:18:08;;;;;;;11.45;3.20;;;19.40;87.60;;;;;;4115241;28;20043;-55
2023/06/28 03:20:11;;;;;;;7.82;2.80;;;19.40;87.70;;;;;;4116637;28;20433;-58
2023/06/28 03:22:14;;;;;;;10.45;2.58;;;19.40;87.90;;;;;;4117478;28;20097;-55
2023/06/28 03:24:16;;;;;;;10.05;2.97;;;19.50;87.60;;;;;;4117853;28;20078;-58
2023/06/28 03:26:18;;;;;;;8.55;2.90;;;19.40;87.00;;;;;;4117659;28;20085;-58
2023/06/28 03:28:20;;;;;;;8.05;2.90;;;19.40;86.60;;;;;;4115085;28;20129;-56
2023/06/28 03:30:22;;;;;;;9.55;3.30;;;19.40;86.70;;;;;;4116185;28;20057;-57
2023/06/28 03:32:24;;;;;;;7.88;2.78;;;19.40;86.90;;;;;;4116566;28;20057;-56
2023/06/28 03:34:27;;;;;;;8.20;2.55;;;19.40;87.10;;;;;;4116459;28;20050;-56
2023/06/28 03:36:31;;;;;;;7.68;2.67;;;19.50;87.40;;;;;;4116208;28;20081;-56
2023/06/28 03:38:33;;;;;;;9.45;2.58;;;19.40;87.30;;;;;;4115369;28;20117;-57
2023/06/28 03:40:36;;;;;;;8.82;2.72;;;19.40;86.70;;;;;;4116101;28;20071;-57
2023/06/28 03:42:38;;;;;;;11.30;3.00;;;19.40;86.50;;;;;;4116169;28;20050;-57
2023/06/28 03:44:41;;;;;;;9.13;2.60;;;19.40;87.10;;;;;;4115226;28;20071;-57
2023/06/28 03:46:43;;;;;;;6.68;2.40;;;19.40;86.60;;;;;;4115649;28;20090;-57
2023/06/28 03:48:45;;;;;;;11.20;2.65;;;19.40;86.80;;;;;;4114873;28;20105;-56
2023/06/28 03:50:48;;;;;;;5.57;2.50;;;19.40;86.60;;;;;;4115749;28;20057;-56
2023/06/28 03:52:50;;;;;;;5.43;2.30;;;19.40;86.40;;;;;;4115855;28;20505;-56
2023/06/28 03:54:53;;;;;;;9.77;2.40;;;19.30;86.40;;;;;;4115899;28;20093;-57
2023/06/28 03:56:55;;;;;;;7.65;2.17;;;19.30;85.90;;;;;;4115639;28;20458;-57
2023/06/28 03:58:57;;;;;;;12.48;2.13;;;19.30;85.60;;;;;;4114732;28;20042;-58
2023/06/28 04:01:02;;;;;;;9.48;2.15;;;19.30;84.80;;;;;;4115567;28;20047;-56
2023/06/28 04:03:05;;;;;;;7.97;2.33;;;19.30;84.10;;;;;;4115753;28;20055;-57
2023/06/28 04:05:07;;;;;;;5.50;2.00;;;19.40;83.60;;;;;;4115785;28;20043;-57
2023/06/28 04:07:11;;;;;;;8.75;2.20;;;19.30;83.00;;;;;;4114954;28;20109;-56
2023/06/28 04:09:15;;;;;;;6.40;2.05;;;19.40;83.20;;;;;;4115645;28;20093;-57
2023/06/28 04:11:17;;;;;;;8.45;2.42;;;19.40;82.70;;;;;;4114109;28;20051;-56
2023/06/28 04:13:19;;;;;;;7.13;2.13;;;19.30;82.50;;;;;;4115379;28;20400;-55
2023/06/28 04:15:21;;;;;;;5.18;2.35;;;19.30;83.20;;;;;;4115546;28;20106;-56
2023/06/28 04:17:24;;;;;;;8.95;2.28;;;19.30;84.00;;;;;;4113545;28;20671;-56
2023/06/28 04:19:26;;;;;;;9.80;2.65;;;19.30;83.70;;;;;;4115631;28;20074;-56
2023/06/28 04:21:29;;;;;;;8.65;2.40;;;19.40;83.40;;;;;;4115650;28;20047;-56
2023/06/28 04:23:33;;;;;;;7.20;2.17;;;19.30;83.90;;;;;;4115337;28;20069;-56
2023/06/28 04:25:37;;;;;;;8.48;2.15;;;19.40;85.20;;;;;;4115573;28;20046;-56
2023/06/28 04:27:39;;;;;;;5.70;2.25;;;19.40;84.50;;;;;;4114348;28;20078;-56
2023/06/28 04:29:41;;;;;;;8.75;2.42;;;19.40;84.90;;;;;;4115504;28;20051;-56
2023/06/28 04:31:43;;;;;;;6.15;2.20;;;19.40;85.50;;;;;;4115654;28;20065;-56
2023/06/28 04:33:46;;;;;;;8.63;2.42;;;19.50;84.80;;;;;;4115554;28;20051;-57
2023/06/28 04:35:49;;;;;;;8.52;2.33;;;19.50;83.90;;;;;;4115287;28;20046;-58
2023/06/28 04:37:54;;;;;;;5.55;2.15;;;19.50;83.80;;;;;;4114473;28;20433;-58
2023/06/28 04:39:58;;;;;;;9.18;2.63;;;19.60;83.70;;;;;;4115416;28;20138;-58
2023/06/28 04:42:00;;;;;;;10.10;2.47;;;19.50;83.70;;;;;;4115174;28;20448;-55
2023/06/28 04:44:03;;;;;;;5.53;2.22;;;19.60;84.00;;;;;;4115355;28;20826;-54
2023/06/28 04:46:11;;;;;;;9.85;2.42;;;19.60;84.20;;;;;;4115235;28;20517;-54
2023/06/28 04:48:14;;;;;;;7.45;2.67;;;19.60;83.90;;;;;;4114212;28;20054;-56
2023/06/28 04:50:16;;;;;;;6.90;2.08;;;19.60;83.90;;;;;;4115369;28;20070;-52
2023/06/28 04:52:19;;;;;;;7.53;2.60;;;19.70;83.60;;;;;;4115201;28;20055;-53
2023/06/28 04:54:21;;;;;;;8.85;2.35;;;19.70;83.10;;;;;;4115187;28;20058;-54
2023/06/28 04:56:25;;;;;;;8.38;2.67;;;19.80;82.30;;;;;;4113751;28;20412;-53
2023/06/28 04:58:27;;;;;;;7.13;2.00;;;19.80;83.00;;;;;;4114228;28;20098;-52
2023/06/28 05:00:30;;;;;;;11.90;2.53;;;19.70;81.90;;;;;;4115280;28;20224;-53
2023/06/28 05:02:32;;;;;;;11.10;3.05;;;19.80;83.10;;;;;;4115281;28;20070;-54
2023/06/28 05:04:35;;;;;;;15.20;3.10;;;19.80;83.40;;;;;;4115242;28;20472;-57
2023/06/28 05:06:37;;;;;;;7.70;2.78;;;19.80;83.80;;;;;;4115224;28;20071;-56
2023/06/28 05:08:39;;;;;;;8.40;2.55;;;19.90;83.90;;;;;;4114094;28;20049;-56
2023/06/28 05:10:42;;;;;;;12.43;2.70;;;20.00;83.70;;;;;;4114715;28;20089;-56
2023/06/28 05:12:46;;;;;;;13.43;2.85;;;20.00;84.00;;;;;;4115149;28;20058;-58
2023/06/28 05:14:48;;;;;;;11.25;2.80;;;20.10;83.80;;;;;;4114930;28;20058;-57
2023/06/28 05:16:50;;;;;;;11.52;2.47;;;20.10;83.90;;;;;;4115484;28;20153;-70
2023/06/28 05:18:52;;;;;;;11.85;2.75;;;20.00;83.90;;;;;;4115289;28;20381;-62
2023/06/28 05:20:54;;;;;;;13.07;2.92;;;20.10;84.00;;;;;;4115561;28;20471;-57
2023/06/28 05:23:09;;;;;;;16.52;3.30;;;20.10;83.80;;;;;;4116103;28;20146;-57
2023/06/28 05:25:11;;;;;;;9.03;2.47;;;20.10;83.70;;;;;;4118157;28;20058;-57
2023/06/28 05:27:13;;;;;;;13.73;3.15;;;20.20;83.60;;;;;;4117939;28;20125;-57
2023/06/28 05:29:19;;;;;;;15.35;3.05;;;20.20;84.10;;;;;;4117245;28;20059;-58
2023/06/28 05:31:21;;;;;;;14.25;2.85;;;20.20;84.00;;;;;;4118304;28;20083;-57
2023/06/28 05:33:23;;;;;;;16.65;3.38;;;20.10;84.00;;;;;;4117957;28;20054;-56
2023/06/28 05:35:25;;;;;;;15.77;3.00;;;20.20;84.30;;;;;;4118362;28;20070;-56
2023/06/28 05:37:27;;;;;;;11.73;2.90;;;20.20;84.60;;;;;;4117074;28;20050;-57
2023/06/28 05:39:29;;;;;;;11.93;3.25;;;20.20;84.40;;;;;;4117596;28;20050;-56
2023/06/28 05:41:31;;;;;;;20.55;3.85;;;20.20;84.20;;;;;;4116668;28;20130;-57
2023/06/28 05:43:33;;;;;;;7.53;2.58;;;20.30;83.80;;;;;;4117893;28;20043;-57
2023/06/28 05:45:37;;;;;;;19.65;3.47;;;20.30;83.50;;;;;;4117483;28;20106;-57
2023/06/28 05:47:39;;;;;;;11.63;3.20;;;20.30;83.80;;;;;;4116947;28;20039;-57
2023/06/28 05:49:42;;;;;;;13.43;2.85;;;20.40;84.10;;;;;;4117544;28;20435;-57
2023/06/28 05:51:45;;;;;;;12.95;2.88;;;20.40;84.60;;;;;;4117834;28;20085;-56
2023/06/28 05:53:47;;;;;;;14.15;3.42;;;20.40;85.00;;;;;;4117147;28;20046;-56
2023/06/28 05:55:49;;;;;;;13.88;2.88;;;20.50;85.10;;;;;;4116234;28;20130;-56
2023/06/28 05:57:51;;;;;;;16.25;3.42;;;20.50;83.90;;;;;;4116815;28;20079;-56
2023/06/28 05:59:54;;;;;;;11.60;3.13;;;20.60;84.20;;;;;;4117582;28;20059;-54
2023/06/28 06:01:57;;;;;;;18.98;3.25;;;20.60;84.80;;;;;;4117679;28;20073;-54
2023/06/28 06:03:59;;;;;;;17.50;3.47;;;20.60;84.60;;;;;;4117573;28;20093;-54
2023/06/28 06:06:01;;;;;;;13.75;2.58;;;20.60;84.40;;;;;;4117807;28;20055;-54
2023/06/28 06:08:04;;;;;;;11.30;2.60;;;20.70;84.70;;;;;;4116024;28;20416;-54
2023/06/28 06:10:07;;;;;;;10.85;2.63;;;20.70;84.40;;;;;;4117300;28;20448;-54
2023/06/28 06:12:09;;;;;;;14.95;3.45;;;20.80;84.10;;;;;;4117492;28;20051;-54
2023/06/28 06:14:11;;;;;;;14.52;3.38;;;20.80;84.20;;;;;;4117540;28;20077;-53
2023/06/28 06:16:14;;;;;;;17.75;3.17;;;20.80;83.90;;;;;;4117248;28;20115;-54
2023/06/28 06:18:17;;;;;;;14.90;3.20;;;20.90;83.80;;;;;;4116276;28;20050;-53
2023/06/28 06:20:19;;;;;;;14.45;3.33;;;20.90;83.50;;;;;;4117296;28;20047;-54
2023/06/28 06:22:21;;;;;;;11.20;2.92;;;20.90;83.50;;;;;;4116899;28;20047;-53
2023/06/28 06:24:23;;;;;;;10.80;2.88;;;20.90;84.00;;;;;;4117217;28;20489;-53
2023/06/28 06:26:29;;;;;;;7.85;2.55;;;21.00;84.00;;;;;;4117242;28;20070;-54
2023/06/28 06:28:31;;;;;;;5.75;2.50;;;21.00;83.90;;;;;;4115878;28;20047;-53
2023/06/28 06:30:33;;;;;;;11.93;2.90;;;21.00;84.10;;;;;;4117021;28;20061;-53
2023/06/28 06:32:35;;;;;;;6.80;2.50;;;21.00;84.80;;;;;;4117081;28;20047;-54
2023/06/28 06:34:39;;;;;;;14.85;3.33;;;21.00;84.90;;;;;;4116520;28;20050;-54
2023/06/28 06:36:41;;;;;;;9.48;2.80;;;21.10;84.60;;;;;;4116888;28;20419;-54
2023/06/28 06:38:43;;;;;;;10.15;2.40;;;21.10;84.60;;;;;;4115933;28;20047;-54
2023/06/28 06:40:45;;;;;;;11.77;4.10;;;21.10;84.50;;;;;;4116853;28;20051;-54
2023/06/28 06:42:47;;;;;;;12.38;2.92;;;21.10;84.80;;;;;;4116937;28;20047;-56
2023/06/28 06:44:50;;;;;;;13.05;2.50;;;21.30;84.70;;;;;;4116849;28;20521;-56
2023/06/28 06:46:52;;;;;;;7.72;2.38;;;21.30;84.50;;;;;;4116656;28;20138;-54
2023/06/28 06:48:55;;;;;;;14.13;2.63;;;21.30;84.90;;;;;;4115707;28;20077;-57
2023/06/28 06:50:58;;;;;;;8.18;2.47;;;21.30;84.90;;;;;;4116834;28;20400;-56
2023/06/28 06:53:00;;;;;;;11.43;2.35;;;21.40;84.30;;;;;;4116471;28;20047;-56
2023/06/28 06:55:03;;;;;;;9.43;2.65;;;21.40;84.50;;;;;;4116755;28;20203;-56
2023/06/28 06:57:06;;;;;;;7.75;2.33;;;21.50;84.30;;;;;;4116580;28;20074;-55
2023/06/28 06:59:08;;;;;;;8.00;2.83;;;21.40;84.20;;;;;;4115413;28;20472;-55
2023/06/28 07:01:10;;;;;;;11.38;2.70;;;21.50;84.40;;;;;;4116456;28;20121;-56
2023/06/28 07:03:12;;;;;;;7.32;2.60;;;21.60;84.10;;;;;;4116549;28;20050;-56
2023/06/28 07:05:15;;;;;;;7.15;2.28;;;21.80;83.80;;;;;;4115482;28;20054;-56
2023/06/28 07:07:19;;;;;;;10.68;3.13;;;21.80;83.70;;;;;;4116382;28;20046;-57
2023/06/28 07:09:21;;;;;;;9.82;2.53;;;22.00;83.40;;;;;;4115716;28;20070;-58
2023/06/28 07:11:25;;;;;;;19.48;3.60;;;22.10;83.10;;;;;;4116493;28;20444;-57
2023/06/28 07:13:27;;;;;;;12.05;2.60;;;22.20;83.50;;;;;;4116596;28;20046;-60
2023/06/28 07:15:29;;;;;;;19.30;4.30;;;22.30;83.00;;;;;;4116904;28;20433;-57
2023/06/28 07:17:31;;;;;;;10.18;3.17;;;22.30;83.30;;;;;;4116683;28;20070;-62
2023/06/28 07:19:34;;;;;;;7.85;3.28;;;22.40;83.00;;;;;;4115664;28;20047;-57
2023/06/28 07:21:36;;;;;;;6.45;2.50;;;22.50;83.00;;;;;;4115912;28;20047;-57
2023/06/28 07:23:39;;;;;;;6.88;2.72;;;22.70;82.70;;;;;;4115163;28;20129;-56
2023/06/28 07:25:41;;;;;;;9.38;3.17;;;22.90;82.30;;;;;;4116090;28;20061;-56
2023/06/28 07:27:44;;;;;;;9.02;3.20;;;23.00;82.50;;;;;;4115876;28;20051;-56
2023/06/28 07:29:46;;;;;;;11.27;3.28;;;23.20;82.10;;;;;;4114624;28;20070;-53
2023/06/28 07:31:48;;;;;;;8.57;3.88;;;23.20;82.00;;;;;;4116210;28;20046;-53
2023/06/28 07:33:50;;;;;;;8.95;3.03;;;23.20;82.10;;;;;;4116227;28;20420;-56
2023/06/28 07:35:53;;;;;;;12.55;2.92;;;23.30;81.60;;;;;;4115716;28;20059;-54
2023/06/28 07:38:00;;;;;;;7.43;3.60;;;23.40;82.00;;;;;;4115278;28;20043;-54
2023/06/28 07:40:08;;;;;;;11.48;3.67;;;23.50;81.80;;;;;;4116163;28;20047;-54
2023/06/28 07:42:12;;;;;;;17.95;3.78;;;23.60;81.00;;;;;;4116248;28;20050;-54
2023/06/28 07:44:14;;;;;;;12.65;3.10;;;23.60;81.00;;;;;;4115935;28;20047;-54
2023/06/28 07:46:16;;;;;;;9.23;2.90;;;23.60;81.30;;;;;;4115238;28;20051;-54
2023/06/28 07:48:19;;;;;;;8.80;3.63;;;23.60;81.10;;;;;;4114727;28;20125;-57
2023/06/28 07:50:22;;;;;;;10.02;3.58;;;23.60;81.10;;;;;;4115375;28;20043;-57
2023/06/28 07:52:24;;;;;;;10.80;3.20;;;23.60;81.00;;;;;;4115889;28;20135;-58
2023/06/28 07:54:27;;;;;;;9.57;3.22;;;23.80;81.10;;;;;;4115768;28;20097;-55
2023/06/28 07:56:36;;;;;;;9.38;3.70;;;23.80;81.20;;;;;;4115909;28;20054;-57
2023/06/28 07:58:38;;;;;;;8.48;3.25;;;23.90;81.70;;;;;;4114852;28;20468;-56
2023/06/28 08:00:40;;;;;;;8.70;3.70;;;23.90;81.50;;;;;;4115871;28;20046;-56
2023/06/28 08:02:43;;;;;;;10.18;3.92;;;24.00;80.80;;;;;;4115649;28;20135;-56
2023/06/28 08:04:46;;;;;;;19.65;4.93;;;24.00;80.70;;;;;;4115540;28;20417;-56
2023/06/28 08:06:48;;;;;;;10.65;3.72;;;24.00;81.20;;;;;;4115739;28;20125;-56
2023/06/28 08:08:50;;;;;;;10.35;3.40;;;24.10;80.40;;;;;;4114575;28;20059;-55
2023/06/28 08:10:53;;;;;;;10.27;3.72;;;24.10;80.00;;;;;;4115829;28;20055;-54
2023/06/28 08:12:56;;;;;;;11.30;4.03;;;24.10;80.00;;;;;;4115775;28;20408;-54
2023/06/28 08:14:58;;;;;;;11.77;4.18;;;23.90;80.10;;;;;;4115496;28;20057;-54
2023/06/28 08:17:00;;;;;;;10.32;3.47;;;23.90;80.60;;;;;;4115639;28;20046;-54
2023/06/28 08:19:02;;;;;;;8.13;3.60;;;23.80;80.20;;;;;;4114419;28;20055;-57
2023/06/28 08:21:05;;;;;;;20.17;12.25;;;23.70;80.40;;;;;;4115451;28;20121;-56
2023/06/28 08:23:07;;;;;;;11.13;4.78;;;23.90;80.70;;;;;;4115553;28;20441;-57
2023/06/28 08:25:09;;;;;;;11.25;4.45;;;24.10;80.70;;;;;;4115170;28;20074;-54
2023/06/28 08:27:11;;;;;;;10.70;4.00;;;24.00;80.70;;;;;;4115597;28;20477;-54
2023/06/28 08:29:16;;;;;;;10.07;4.10;;;24.10;79.90;;;;;;4114603;28;20049;-56
2023/06/28 08:31:19;;;;;;;8.70;3.38;;;24.20;79.40;;;;;;4115275;28;20101;-56
2023/06/28 08:33:22;;;;;;;11.40;3.78;;;24.30;79.50;;;;;;4115093;28;20054;-56
2023/06/28 08:35:24;;;;;;;12.63;3.35;;;24.10;79.40;;;;;;4115401;28;20144;-56
2023/06/28 08:37:29;;;;;;;11.38;3.75;;;24.10;80.20;;;;;;4115402;28;20457;-56
2023/06/28 08:39:31;;;;;;;25.05;4.55;;;24.10;79.60;;;;;;4114717;28;20152;-56
2023/06/28 08:41:34;;;;;;;14.25;4.55;;;24.10;79.60;;;;;;4115476;28;20053;-56
2023/06/28 08:43:37;;;;;;;13.77;3.78;;;24.00;79.70;;;;;;4115295;28;20209;-56
2023/06/28 08:45:43;;;;;;;22.73;4.45;;;24.10;80.10;;;;;;4115129;28;20501;-57
2023/06/28 08:47:46;;;;;;;11.50;3.97;;;24.10;79.60;;;;;;4114685;28;20121;-57
2023/06/28 08:49:48;;;;;;;13.63;4.05;;;24.20;79.70;;;;;;4114068;28;20101;-56
2023/06/28 08:51:50;;;;;;;14.57;4.30;;;24.30;79.50;;;;;;4115139;28;20130;-56
2023/06/28 08:53:54;;;;;;;7.60;3.60;;;24.40;78.90;;;;;;4115435;28;20046;-56
2023/06/28 08:55:59;;;;;;;14.98;4.30;;;24.40;78.90;;;;;;4115173;28;20112;-57
2023/06/28 08:58:03;;;;;;;14.38;4.03;;;24.40;79.50;;;;;;4115612;28;20051;-58
2023/06/28 09:00:10;;;;;;;9.50;4.28;;;24.40;79.10;;;;;;4118449;28;20088;-57
2023/06/28 09:02:17;;;;;;;11.65;4.13;;;24.30;78.80;;;;;;4118200;28;20486;-55
2023/06/28 09:04:22;;;;;;;11.23;4.07;;;24.50;79.70;;;;;;4118329;28;20113;-56
2023/06/28 09:06:24;;;;;;;;;;;24.60;79.70;;;;;;4118921;28;20102;-56
2023/06/28 09:08:27;;;;;;;14.43;4.28;;;24.60;79.10;;;;;;4117376;28;19926;-56
2023/06/28 09:10:29;;;;;;;10.73;4.10;;;24.60;79.00;;;;;;4120506;28;20130;-60
2023/06/28 09:12:32;;;;;;;13.57;4.03;;;24.70;79.10;;;;;;4120474;28;20051;-60
2023/06/28 09:14:34;;;;;;;9.18;3.90;;;24.80;78.60;;;;;;4120734;28;20043;-56
2023/06/28 09:16:36;;;;;;;12.90;3.83;;;24.80;77.90;;;;;;4118660;28;20042;-56
2023/06/28 09:18:39;;;;;;;13.25;4.35;;;24.80;78.50;;;;;;4117724;28;20058;-56
2023/06/28 09:20:48;;;;;;;13.75;4.38;;;24.70;78.30;;;;;;4118158;28;20047;-56
2023/06/28 09:22:55;;;;;;;8.90;4.65;;;24.80;77.70;;;;;;4100749;29;20066;-56
2023/06/28 09:25:03;;;;;;;15.20;6.10;;;24.80;77.80;;;;;;4115151;28;20054;-61
2023/06/28 09:27:07;;;;;;;10.13;5.90;;;25.10;77.90;;;;;;4110569;28;20050;-57
2023/06/28 09:29:11;;;;;;;11.60;5.18;;;25.10;77.50;;;;;;4114621;28;20054;-55
2023/06/28 09:31:18;;;;;;;12.60;6.70;;;25.10;77.60;;;;;;4111595;28;20066;-55
2023/06/28 09:33:21;;;;;;;12.93;5.97;;;25.20;76.40;;;;;;4117978;28;20046;-57
2023/06/28 09:35:26;;;;;;;10.73;6.70;;;25.10;76.40;;;;;;4115811;28;20050;-54
2023/06/28 09:37:30;;;;;;;14.73;5.93;;;25.10;76.60;;;;;;4113176;28;20055;-56
2023/06/28 09:39:38;;;;;;;12.52;6.45;;;25.10;76.30;;;;;;4116765;28;20047;-55
2023/06/28 09:41:41;;;;;;;12.55;6.85;;;25.20;77.10;;;;;;4117915;28;20066;-56
2023/06/28 09:43:44;;;;;;;9.57;6.18;;;25.20;77.20;;;;;;4117622;28;20074;-56
2023/06/28 09:45:48;;;;;;;14.00;5.82;;;25.20;76.10;;;;;;4117214;28;20133;-55
2023/06/28 09:47:55;;;;;;;;;;;25.40;76.70;;;;;;4118128;28;20071;-55
2023/06/28 09:50:01;;;;;;;12.10;6.10;;;25.30;76.20;;;;;;4116564;28;19944;-54
2023/06/28 09:52:06;;;;;;;11.27;5.78;;;25.10;75.60;;;;;;4097314;28;20203;-54
2023/06/28 09:54:09;;;;;;;13.05;6.82;;;25.30;76.80;;;;;;4119227;28;20051;-61
2023/06/28 09:56:11;;;;;;;11.95;7.07;;;25.50;77.10;;;;;;4117078;28;20070;-56
2023/06/28 09:58:14;;;;;;;9.68;6.10;;;25.50;76.30;;;;;;4117153;28;20488;-57
2023/06/28 10:00:17;;;;;;;10.70;6.88;;;25.60;75.90;;;;;;4117322;28;20507;-59
2023/06/28 10:02:22;;;;;;;13.18;7.57;;;25.70;75.70;;;;;;4117043;28;20043;-55
2023/06/28 10:04:26;;;;;;;13.60;7.63;;;25.60;75.60;;;;;;4117569;28;20054;-55
2023/06/28 10:06:33;;;;;;;17.77;10.07;;;25.80;75.30;;;;;;4117276;28;20051;-55
2023/06/28 10:08:38;;;;;;;17.85;8.95;;;25.70;75.30;;;;;;4116692;28;20097;-55
2023/06/28 10:10:40;;;;;;;15.80;8.93;;;25.80;75.20;;;;;;4116459;28;20131;-55
2023/06/28 10:12:44;;;;;;;12.93;8.98;;;25.90;75.10;;;;;;4117230;28;20050;-55
2023/06/28 10:14:53;;;;;;;12.77;8.55;;;25.90;75.10;;;;;;4099871;28;20133;-56
2023/06/28 10:16:59;;;;;;;18.55;9.65;;;26.00;75.00;;;;;;4117397;28;20075;-58
2023/06/28 10:19:02;;;;;;;21.27;9.73;;;26.10;74.80;;;;;;4116293;28;20170;-55
2023/06/28 10:21:06;;;;;;;17.70;9.23;;;26.20;75.20;;;;;;4116949;28;20994;-56
2023/06/28 10:23:10;;;;;;;13.98;8.30;;;26.30;75.00;;;;;;4117028;28;20094;-57
2023/06/28 10:25:14;;;;;;;14.13;6.55;;;26.40;74.90;;;;;;4117099;28;20066;-55
2023/06/28 10:27:17;;;;;;;18.55;7.45;;;26.40;74.50;;;;;;4117102;28;20559;-55
2023/06/28 10:29:20;;;;;;;15.98;7.50;;;26.40;75.20;;;;;;4115450;28;20121;-55
2023/06/28 10:31:23;;;;;;;12.60;7.22;;;26.40;74.30;;;;;;4116742;28;20051;-56
2023/06/28 10:33:27;;;;;;;12.35;7.25;;;26.40;74.60;;;;;;4114277;28;20456;-56
2023/06/28 10:35:29;;;;;;;14.43;6.63;;;26.30;74.90;;;;;;4099012;28;20047;-56
2023/06/28 10:37:31;;;;;;;14.20;7.10;;;26.20;74.40;;;;;;4118278;28;20552;-55